Airfield :
LOGIN :

Register | Disclaimer

   EN    FR    IT 

 










Legend :    VFR   Marginal VFR   IFR   Intensive IFR   Very Intensive IFR
Visi :
Ceiling :
>= 8 km
>= 3000ft
5 to 8 km
1000 to 3000 ft
1500m to 5 km
500 to 1000 ft
800 to 1500m
200 to 500 ft
< 800m
< 200 ft
Symbols :   Thunderstorms  Fog  Heavy snow  Heavy precipitations  Wind > 20 kt
SIGMETs :     Misc.  Thunderstorms  Icing  Turbulence  Mountain Waves  Volcanic Ashes







- Airport Elevation : 412 ft
- IATA code : ORE
- Download approach charts


LFOJ - Orleans

CURRENT METAR :
  • 190500Z AUTO 01002KT 5000 BR NSC 00/00 Q1026

EXPIRED METARs :
  • 190430Z AUTO 00000KT 5000 BR NSC 00/00 Q1026
  • 190400Z AUTO 34001KT 1900 BR NSC 00/00 Q1026
  • 190330Z AUTO 00000KT 8000 NSC 01/01 Q1026

TAF AMD TAF LFOJ
Valid from the 19 at 05:00 until the 20 at 03:00 UTC


190500Z 1905/2003 36003KT 4900 BR NSC
TEMPO 1905/1910 3000
PROB40
TEMPO 1905/1910 BKN003
PROB30
TEMPO 1905/1908 0900 BCFG VV///
BECMG 1908/1910 9999 NSW BKN007
BECMG 1910/1912 BKN030
PROB40
TEMPO 2000/2003 4500 BR NSC
No reported NOTAMs for that airfield.



MET'MAP, your aeronautical weather chart ! - Copyright ORBIFLY December 2007 - Disclaimer

ORBIFLY MET'MAP TEAM :

Programming & Development : Alexandra Zaïnal
Concept & Development : Baudouin d'Aumeries
Co-Development & Prog : Marc-Olivier Méhu
Technical & hardware support : Manuel Goepfert

Contact : metmap@orbifly.com




SOURCES & CREDITS :

   NOAA